sensor_id;sensor_type;location;lat;lon;timestamp;P1;durP1;ratioP1;P2;durP2;ratioP2
39442;SDS011;25147;52.142;9.960;2023-11-18T00:00:01;23.67;;;17.88;;
39442;SDS011;25147;52.142;9.960;2023-11-18T00:02:28;23.73;;;18.50;;
39442;SDS011;25147;52.142;9.960;2023-11-18T00:04:58;27.30;;;21.83;;
39442;SDS011;25147;52.142;9.960;2023-11-18T00:07:26;24.08;;;19.52;;
39442;SDS011;25147;52.142;9.960;2023-11-18T00:09:55;26.48;;;18.45;;
39442;SDS011;25147;52.142;9.960;2023-11-18T00:12:22;25.90;;;20.10;;
39442;SDS011;25147;52.142;9.960;2023-11-18T00:14:50;23.10;;;20.08;;
39442;SDS011;25147;52.142;9.960;2023-11-18T00:17:17;30.10;;;22.10;;
39442;SDS011;25147;52.142;9.960;2023-11-18T00:19:45;23.65;;;21.08;;
39442;SDS011;25147;52.142;9.960;2023-11-18T00:22:12;27.65;;;21.00;;
39442;SDS011;25147;52.142;9.960;2023-11-18T00:24:39;24.15;;;20.98;;
39442;SDS011;25147;52.142;9.960;2023-11-18T00:27:07;26.23;;;20.85;;
39442;SDS011;25147;52.142;9.960;2023-11-18T00:29:35;23.77;;;19.88;;
39442;SDS011;25147;52.142;9.960;2023-11-18T00:32:04;26.23;;;21.10;;
39442;SDS011;25147;52.142;9.960;2023-11-18T00:37:51;27.52;;;21.58;;
39442;SDS011;25147;52.142;9.960;2023-11-18T00:41:05;23.38;;;19.58;;
39442;SDS011;25147;52.142;9.960;2023-11-18T00:43:34;26.50;;;20.40;;
39442;SDS011;25147;52.142;9.960;2023-11-18T00:46:01;33.25;;;21.05;;
39442;SDS011;25147;52.142;9.960;2023-11-18T00:48:29;27.00;;;21.75;;
39442;SDS011;25147;52.142;9.960;2023-11-18T00:50:56;29.00;;;22.15;;
39442;SDS011;25147;52.142;9.960;2023-11-18T00:53:22;30.08;;;22.10;;
39442;SDS011;25147;52.142;9.960;2023-11-18T00:55:49;28.50;;;22.55;;
39442;SDS011;25147;52.142;9.960;2023-11-18T00:58:16;32.50;;;23.02;;
39442;SDS011;25147;52.142;9.960;2023-11-18T01:00:44;27.52;;;22.63;;
39442;SDS011;25147;52.142;9.960;2023-11-18T01:03:11;27.98;;;21.45;;
39442;SDS011;25147;52.142;9.960;2023-11-18T01:05:38;25.95;;;20.63;;
39442;SDS011;25147;52.142;9.960;2023-11-18T01:08:06;28.40;;;21.10;;
39442;SDS011;25147;52.142;9.960;2023-11-18T01:10:34;25.65;;;20.63;;
39442;SDS011;25147;52.142;9.960;2023-11-18T01:13:00;25.40;;;20.13;;
39442;SDS011;25147;52.142;9.960;2023-11-18T01:15:27;24.02;;;19.67;;
39442;SDS011;25147;52.142;9.960;2023-11-18T01:17:59;27.08;;;21.42;;
39442;SDS011;25147;52.142;9.960;2023-11-18T01:20:32;26.70;;;20.08;;
39442;SDS011;25147;52.142;9.960;2023-11-18T01:22:58;26.55;;;19.83;;
39442;SDS011;25147;52.142;9.960;2023-11-18T01:25:25;25.65;;;20.13;;
39442;SDS011;25147;52.142;9.960;2023-11-18T01:27:52;26.67;;;20.35;;
39442;SDS011;25147;52.142;9.960;2023-11-18T01:30:19;28.00;;;21.20;;
39442;SDS011;25147;52.142;9.960;2023-11-18T01:32:52;24.98;;;19.67;;
39442;SDS011;25147;52.142;9.960;2023-11-18T01:35:21;25.85;;;20.65;;
39442;SDS011;25147;52.142;9.960;2023-11-18T01:37:53;27.00;;;20.90;;
39442;SDS011;25147;52.142;9.960;2023-11-18T01:40:21;24.70;;;20.80;;
39442;SDS011;25147;52.142;9.960;2023-11-18T01:42:49;25.88;;;19.55;;
39442;SDS011;25147;52.142;9.960;2023-11-18T01:45:15;26.33;;;21.35;;
39442;SDS011;25147;52.142;9.960;2023-11-18T01:47:43;26.05;;;21.15;;
39442;SDS011;25147;52.142;9.960;2023-11-18T01:50:11;27.35;;;21.05;;
39442;SDS011;25147;52.142;9.960;2023-11-18T01:52:45;25.13;;;20.30;;
39442;SDS011;25147;52.142;9.960;2023-11-18T01:55:13;24.13;;;21.00;;
39442;SDS011;25147;52.142;9.960;2023-11-18T01:57:42;25.73;;;20.98;;
39442;SDS011;25147;52.142;9.960;2023-11-18T02:00:11;24.10;;;21.25;;
39442;SDS011;25147;52.142;9.960;2023-11-18T02:02:38;26.45;;;22.38;;
39442;SDS011;25147;52.142;9.960;2023-11-18T02:05:05;27.25;;;22.48;;
39442;SDS011;25147;52.142;9.960;2023-11-18T02:07:32;30.00;;;23.15;;
39442;SDS011;25147;52.142;9.960;2023-11-18T02:10:02;27.75;;;22.98;;
39442;SDS011;25147;52.142;9.960;2023-11-18T02:12:37;30.65;;;22.38;;
39442;SDS011;25147;52.142;9.960;2023-11-18T02:15:09;28.95;;;23.50;;
39442;SDS011;25147;52.142;9.960;2023-11-18T02:17:38;25.77;;;22.40;;
39442;SDS011;25147;52.142;9.960;2023-11-18T02:20:06;27.60;;;22.58;;
39442;SDS011;25147;52.142;9.960;2023-11-18T02:22:44;26.92;;;22.80;;
39442;SDS011;25147;52.142;9.960;2023-11-18T02:25:18;28.25;;;23.38;;
39442;SDS011;25147;52.142;9.960;2023-11-18T02:27:48;31.00;;;25.17;;
39442;SDS011;25147;52.142;9.960;2023-11-18T02:30:14;33.15;;;24.67;;
39442;SDS011;25147;52.142;9.960;2023-11-18T02:32:44;30.52;;;24.55;;
39442;SDS011;25147;52.142;9.960;2023-11-18T02:35:16;29.83;;;23.88;;
39442;SDS011;25147;52.142;9.960;2023-11-18T02:37:49;29.55;;;23.08;;
39442;SDS011;25147;52.142;9.960;2023-11-18T02:40:20;32.38;;;23.23;;
39442;SDS011;25147;52.142;9.960;2023-11-18T02:42:57;28.35;;;22.80;;
39442;SDS011;25147;52.142;9.960;2023-11-18T02:45:25;30.20;;;23.17;;
39442;SDS011;25147;52.142;9.960;2023-11-18T02:47:53;30.77;;;22.92;;
39442;SDS011;25147;52.142;9.960;2023-11-18T02:50:22;28.92;;;22.75;;
39442;SDS011;25147;52.142;9.960;2023-11-18T02:52:50;31.92;;;23.55;;
39442;SDS011;25147;52.142;9.960;2023-11-18T02:55:17;28.40;;;22.40;;
39442;SDS011;25147;52.142;9.960;2023-11-18T02:57:46;29.50;;;21.83;;
39442;SDS011;25147;52.142;9.960;2023-11-18T03:00:15;30.10;;;22.50;;
39442;SDS011;25147;52.142;9.960;2023-11-18T03:02:46;30.95;;;23.38;;
39442;SDS011;25147;52.142;9.960;2023-11-18T03:05:14;31.63;;;23.83;;
39442;SDS011;25147;52.142;9.960;2023-11-18T03:07:41;31.90;;;23.05;;
39442;SDS011;25147;52.142;9.960;2023-11-18T03:10:09;34.53;;;24.25;;
39442;SDS011;25147;52.142;9.960;2023-11-18T03:12:45;35.88;;;24.40;;
39442;SDS011;25147;52.142;9.960;2023-11-18T03:15:12;33.45;;;24.10;;
39442;SDS011;25147;52.142;9.960;2023-11-18T03:17:43;32.13;;;24.17;;
39442;SDS011;25147;52.142;9.960;2023-11-18T03:20:10;33.70;;;23.92;;
39442;SDS011;25147;52.142;9.960;2023-11-18T03:22:39;35.28;;;25.27;;
39442;SDS011;25147;52.142;9.960;2023-11-18T03:25:07;34.40;;;25.25;;
39442;SDS011;25147;52.142;9.960;2023-11-18T03:27:35;35.28;;;26.35;;
39442;SDS011;25147;52.142;9.960;2023-11-18T03:30:02;35.72;;;26.10;;
39442;SDS011;25147;52.142;9.960;2023-11-18T03:32:30;36.50;;;25.05;;
39442;SDS011;25147;52.142;9.960;2023-11-18T03:34:57;39.28;;;24.35;;
39442;SDS011;25147;52.142;9.960;2023-11-18T03:37:24;36.92;;;25.33;;
39442;SDS011;25147;52.142;9.960;2023-11-18T03:39:51;36.55;;;25.63;;
39442;SDS011;25147;52.142;9.960;2023-11-18T03:42:18;40.63;;;25.52;;
39442;SDS011;25147;52.142;9.960;2023-11-18T03:44:45;35.60;;;25.05;;
39442;SDS011;25147;52.142;9.960;2023-11-18T03:47:15;39.35;;;26.33;;
39442;SDS011;25147;52.142;9.960;2023-11-18T03:49:43;31.95;;;23.73;;
39442;SDS011;25147;52.142;9.960;2023-11-18T03:52:10;35.30;;;25.58;;
39442;SDS011;25147;52.142;9.960;2023-11-18T03:54:37;35.45;;;25.92;;
39442;SDS011;25147;52.142;9.960;2023-11-18T03:57:04;35.72;;;24.83;;
39442;SDS011;25147;52.142;9.960;2023-11-18T03:59:31;34.25;;;25.27;;
39442;SDS011;25147;52.142;9.960;2023-11-18T04:01:58;30.48;;;23.10;;
39442;SDS011;25147;52.142;9.960;2023-11-18T04:04:25;37.20;;;25.92;;
39442;SDS011;25147;52.142;9.960;2023-11-18T04:06:55;34.35;;;24.10;;
39442;SDS011;25147;52.142;9.960;2023-11-18T04:09:22;30.88;;;23.35;;
39442;SDS011;25147;52.142;9.960;2023-11-18T04:11:49;33.40;;;24.95;;
39442;SDS011;25147;52.142;9.960;2023-11-18T04:14:16;36.13;;;25.48;;
39442;SDS011;25147;52.142;9.960;2023-11-18T04:16:44;33.28;;;23.85;;
39442;SDS011;25147;52.142;9.960;2023-11-18T04:19:11;33.00;;;24.23;;
39442;SDS011;25147;52.142;9.960;2023-11-18T04:21:38;31.83;;;24.90;;
39442;SDS011;25147;52.142;9.960;2023-11-18T04:24:06;36.00;;;25.27;;
39442;SDS011;25147;52.142;9.960;2023-11-18T04:26:35;39.53;;;24.90;;
39442;SDS011;25147;52.142;9.960;2023-11-18T04:29:02;35.72;;;25.17;;
39442;SDS011;25147;52.142;9.960;2023-11-18T04:31:29;35.97;;;25.33;;
39442;SDS011;25147;52.142;9.960;2023-11-18T04:33:56;37.17;;;26.73;;
39442;SDS011;25147;52.142;9.960;2023-11-18T04:36:23;34.05;;;25.50;;
39442;SDS011;25147;52.142;9.960;2023-11-18T04:38:51;36.67;;;26.33;;
39442;SDS011;25147;52.142;9.960;2023-11-18T04:41:20;37.47;;;26.40;;
39442;SDS011;25147;52.142;9.960;2023-11-18T04:43:49;36.60;;;26.35;;
39442;SDS011;25147;52.142;9.960;2023-11-18T04:46:16;39.35;;;27.45;;
39442;SDS011;25147;52.142;9.960;2023-11-18T04:48:44;35.75;;;25.13;;
39442;SDS011;25147;52.142;9.960;2023-11-18T04:51:11;40.78;;;25.92;;
39442;SDS011;25147;52.142;9.960;2023-11-18T04:53:39;39.95;;;27.15;;
39442;SDS011;25147;52.142;9.960;2023-11-18T04:56:06;38.83;;;25.48;;
39442;SDS011;25147;52.142;9.960;2023-11-18T04:58:39;40.97;;;27.05;;
39442;SDS011;25147;52.142;9.960;2023-11-18T05:01:06;44.25;;;27.60;;
39442;SDS011;25147;52.142;9.960;2023-11-18T05:03:34;39.22;;;26.38;;
39442;SDS011;25147;52.142;9.960;2023-11-18T05:06:01;37.42;;;24.95;;
39442;SDS011;25147;52.142;9.960;2023-11-18T05:08:29;40.00;;;25.33;;
39442;SDS011;25147;52.142;9.960;2023-11-18T05:10:58;45.40;;;28.08;;
39442;SDS011;25147;52.142;9.960;2023-11-18T05:13:25;39.17;;;25.92;;
39442;SDS011;25147;52.142;9.960;2023-11-18T05:15:53;40.45;;;26.60;;
39442;SDS011;25147;52.142;9.960;2023-11-18T05:18:20;38.58;;;26.60;;
39442;SDS011;25147;52.142;9.960;2023-11-18T05:20:47;36.97;;;25.90;;
39442;SDS011;25147;52.142;9.960;2023-11-18T05:23:14;38.60;;;27.25;;
39442;SDS011;25147;52.142;9.960;2023-11-18T05:25:42;36.78;;;26.33;;
39442;SDS011;25147;52.142;9.960;2023-11-18T05:28:09;37.03;;;25.40;;
39442;SDS011;25147;52.142;9.960;2023-11-18T05:30:36;43.03;;;27.98;;
39442;SDS011;25147;52.142;9.960;2023-11-18T05:33:05;36.90;;;26.02;;
39442;SDS011;25147;52.142;9.960;2023-11-18T05:35:34;44.95;;;28.23;;
39442;SDS011;25147;52.142;9.960;2023-11-18T05:38:01;39.65;;;26.95;;
39442;SDS011;25147;52.142;9.960;2023-11-18T05:40:28;41.85;;;26.63;;
39442;SDS011;25147;52.142;9.960;2023-11-18T05:42:55;43.58;;;27.27;;
39442;SDS011;25147;52.142;9.960;2023-11-18T05:45:24;38.60;;;27.15;;
39442;SDS011;25147;52.142;9.960;2023-11-18T05:47:57;50.40;;;27.38;;
39442;SDS011;25147;52.142;9.960;2023-11-18T05:50:26;39.85;;;27.75;;
39442;SDS011;25147;52.142;9.960;2023-11-18T05:52:53;43.92;;;28.23;;
39442;SDS011;25147;52.142;9.960;2023-11-18T05:55:21;42.80;;;28.13;;
39442;SDS011;25147;52.142;9.960;2023-11-18T05:57:48;43.05;;;28.23;;
39442;SDS011;25147;52.142;9.960;2023-11-18T06:00:15;39.53;;;26.85;;
39442;SDS011;25147;52.142;9.960;2023-11-18T06:02:44;42.63;;;27.67;;
39442;SDS011;25147;52.142;9.960;2023-11-18T06:05:11;49.22;;;29.10;;
39442;SDS011;25147;52.142;9.960;2023-11-18T06:07:41;41.22;;;29.27;;
39442;SDS011;25147;52.142;9.960;2023-11-18T06:10:08;44.35;;;28.83;;
39442;SDS011;25147;52.142;9.960;2023-11-18T06:12:37;42.55;;;28.45;;
39442;SDS011;25147;52.142;9.960;2023-11-18T06:15:06;43.17;;;28.42;;
39442;SDS011;25147;52.142;9.960;2023-11-18T06:17:34;42.38;;;27.45;;
39442;SDS011;25147;52.142;9.960;2023-11-18T06:20:02;40.58;;;28.10;;
39442;SDS011;25147;52.142;9.960;2023-11-18T06:22:31;39.22;;;27.67;;
39442;SDS011;25147;52.142;9.960;2023-11-18T06:24:59;38.87;;;27.63;;
39442;SDS011;25147;52.142;9.960;2023-11-18T06:27:27;43.30;;;27.60;;
39442;SDS011;25147;52.142;9.960;2023-11-18T06:29:55;39.80;;;27.08;;
39442;SDS011;25147;52.142;9.960;2023-11-18T06:32:21;44.10;;;27.05;;
39442;SDS011;25147;52.142;9.960;2023-11-18T06:34:51;38.93;;;27.27;;
39442;SDS011;25147;52.142;9.960;2023-11-18T06:37:18;42.10;;;28.27;;
39442;SDS011;25147;52.142;9.960;2023-11-18T06:39:47;46.70;;;29.20;;
39442;SDS011;25147;52.142;9.960;2023-11-18T06:42:15;42.22;;;28.30;;
39442;SDS011;25147;52.142;9.960;2023-11-18T06:44:43;39.42;;;27.17;;
39442;SDS011;25147;52.142;9.960;2023-11-18T06:47:10;42.80;;;27.27;;
39442;SDS011;25147;52.142;9.960;2023-11-18T06:49:38;41.47;;;25.77;;
39442;SDS011;25147;52.142;9.960;2023-11-18T06:52:06;45.83;;;25.87;;
39442;SDS011;25147;52.142;9.960;2023-11-18T06:54:35;47.43;;;26.87;;
39442;SDS011;25147;52.142;9.960;2023-11-18T06:57:03;42.50;;;26.42;;
39442;SDS011;25147;52.142;9.960;2023-11-18T06:59:31;45.63;;;27.30;;
39442;SDS011;25147;52.142;9.960;2023-11-18T07:01:58;46.85;;;27.25;;
39442;SDS011;25147;52.142;9.960;2023-11-18T07:04:25;43.58;;;27.63;;
39442;SDS011;25147;52.142;9.960;2023-11-18T07:06:52;44.05;;;25.48;;
39442;SDS011;25147;52.142;9.960;2023-11-18T07:09:19;44.97;;;25.77;;
39442;SDS011;25147;52.142;9.960;2023-11-18T07:11:47;44.90;;;26.17;;
39442;SDS011;25147;52.142;9.960;2023-11-18T07:14:16;46.13;;;27.05;;
39442;SDS011;25147;52.142;9.960;2023-11-18T07:16:44;49.90;;;27.23;;
39442;SDS011;25147;52.142;9.960;2023-11-18T07:19:11;50.00;;;27.40;;
39442;SDS011;25147;52.142;9.960;2023-11-18T07:21:45;46.50;;;26.80;;
39442;SDS011;25147;52.142;9.960;2023-11-18T07:24:12;46.17;;;25.80;;
39442;SDS011;25147;52.142;9.960;2023-11-18T07:26:38;44.00;;;26.42;;
39442;SDS011;25147;52.142;9.960;2023-11-18T07:29:04;44.10;;;26.88;;
39442;SDS011;25147;52.142;9.960;2023-11-18T07:31:33;43.17;;;26.13;;
39442;SDS011;25147;52.142;9.960;2023-11-18T07:34:02;43.95;;;26.90;;
39442;SDS011;25147;52.142;9.960;2023-11-18T07:36:32;45.97;;;26.97;;
39442;SDS011;25147;52.142;9.960;2023-11-18T07:38:59;43.67;;;26.50;;
39442;SDS011;25147;52.142;9.960;2023-11-18T07:41:28;39.42;;;24.60;;
39442;SDS011;25147;52.142;9.960;2023-11-18T07:43:57;44.40;;;26.90;;
39442;SDS011;25147;52.142;9.960;2023-11-18T07:46:23;42.53;;;26.00;;
39442;SDS011;25147;52.142;9.960;2023-11-18T07:48:51;49.28;;;27.40;;
39442;SDS011;25147;52.142;9.960;2023-11-18T07:51:20;54.35;;;29.42;;
39442;SDS011;25147;52.142;9.960;2023-11-18T07:53:48;51.83;;;27.45;;
39442;SDS011;25147;52.142;9.960;2023-11-18T07:56:15;50.35;;;29.27;;
39442;SDS011;25147;52.142;9.960;2023-11-18T07:58:42;52.33;;;28.98;;
39442;SDS011;25147;52.142;9.960;2023-11-18T08:01:11;50.42;;;29.38;;
39442;SDS011;25147;52.142;9.960;2023-11-18T08:03:38;46.63;;;28.05;;
39442;SDS011;25147;52.142;9.960;2023-11-18T08:06:06;47.03;;;28.08;;
39442;SDS011;25147;52.142;9.960;2023-11-18T08:08:36;49.30;;;27.40;;
39442;SDS011;25147;52.142;9.960;2023-11-18T08:11:04;50.53;;;29.23;;
39442;SDS011;25147;52.142;9.960;2023-11-18T08:13:31;52.75;;;29.80;;
39442;SDS011;25147;52.142;9.960;2023-11-18T08:15:58;53.80;;;30.08;;
39442;SDS011;25147;52.142;9.960;2023-11-18T08:18:25;51.70;;;28.85;;
39442;SDS011;25147;52.142;9.960;2023-11-18T08:20:53;50.78;;;28.73;;
39442;SDS011;25147;52.142;9.960;2023-11-18T08:23:20;59.90;;;30.20;;
39442;SDS011;25147;52.142;9.960;2023-11-18T08:25:50;54.05;;;29.25;;
39442;SDS011;25147;52.142;9.960;2023-11-18T08:28:17;51.88;;;27.05;;
39442;SDS011;25147;52.142;9.960;2023-11-18T08:30:44;50.47;;;28.42;;
39442;SDS011;25147;52.142;9.960;2023-11-18T08:33:14;48.22;;;27.25;;
39442;SDS011;25147;52.142;9.960;2023-11-18T08:35:41;49.47;;;26.95;;
39442;SDS011;25147;52.142;9.960;2023-11-18T08:38:08;50.50;;;27.67;;
39442;SDS011;25147;52.142;9.960;2023-11-18T08:40:37;49.28;;;28.05;;
39442;SDS011;25147;52.142;9.960;2023-11-18T08:43:11;45.47;;;26.92;;
39442;SDS011;25147;52.142;9.960;2023-11-18T08:45:41;45.22;;;25.75;;
39442;SDS011;25147;52.142;9.960;2023-11-18T08:48:10;41.63;;;24.60;;
39442;SDS011;25147;52.142;9.960;2023-11-18T08:50:37;43.42;;;23.33;;
39442;SDS011;25147;52.142;9.960;2023-11-18T08:53:07;39.35;;;22.20;;
39442;SDS011;25147;52.142;9.960;2023-11-18T08:55:44;41.33;;;21.55;;
39442;SDS011;25147;52.142;9.960;2023-11-18T08:58:29;40.90;;;22.77;;
39442;SDS011;25147;52.142;9.960;2023-11-18T09:01:08;38.08;;;21.58;;
39442;SDS011;25147;52.142;9.960;2023-11-18T09:03:42;35.22;;;20.15;;
39442;SDS011;25147;52.142;9.960;2023-11-18T09:06:15;39.65;;;23.40;;
39442;SDS011;25147;52.142;9.960;2023-11-18T09:08:51;34.35;;;21.42;;
39442;SDS011;25147;52.142;9.960;2023-11-18T09:11:32;36.22;;;20.98;;
39442;SDS011;25147;52.142;9.960;2023-11-18T09:14:00;35.22;;;21.40;;
39442;SDS011;25147;52.142;9.960;2023-11-18T09:16:38;37.45;;;20.27;;
39442;SDS011;25147;52.142;9.960;2023-11-18T09:19:21;35.78;;;20.88;;
39442;SDS011;25147;52.142;9.960;2023-11-18T09:22:15;34.40;;;20.25;;
39442;SDS011;25147;52.142;9.960;2023-11-18T09:24:58;31.00;;;19.92;;
39442;SDS011;25147;52.142;9.960;2023-11-18T09:27:25;33.75;;;20.63;;
39442;SDS011;25147;52.142;9.960;2023-11-18T09:30:08;34.20;;;18.60;;
39442;SDS011;25147;52.142;9.960;2023-11-18T09:33:04;30.15;;;17.85;;
39442;SDS011;25147;52.142;9.960;2023-11-18T09:36:11;33.08;;;17.67;;
39442;SDS011;25147;52.142;9.960;2023-11-18T09:39:01;29.55;;;16.42;;
39442;SDS011;25147;52.142;9.960;2023-11-18T09:42:34;24.73;;;15.50;;
39442;SDS011;25147;52.142;9.960;2023-11-18T09:45:49;23.40;;;13.45;;
39442;SDS011;25147;52.142;9.960;2023-11-18T09:49:10;18.98;;;12.82;;
39442;SDS011;25147;52.142;9.960;2023-11-18T09:52:15;19.95;;;12.20;;
39442;SDS011;25147;52.142;9.960;2023-11-18T09:55:18;18.48;;;11.43;;
39442;SDS011;25147;52.142;9.960;2023-11-18T09:58:27;20.77;;;11.20;;
39442;SDS011;25147;52.142;9.960;2023-11-18T10:01:19;13.88;;;8.45;;
39442;SDS011;25147;52.142;9.960;2023-11-18T10:04:09;15.90;;;8.38;;
39442;SDS011;25147;52.142;9.960;2023-11-18T10:06:59;13.00;;;7.30;;
39442;SDS011;25147;52.142;9.960;2023-11-18T10:09:42;13.52;;;8.32;;
39442;SDS011;25147;52.142;9.960;2023-11-18T10:12:22;12.77;;;8.05;;
39442;SDS011;25147;52.142;9.960;2023-11-18T10:15:07;14.52;;;7.60;;
39442;SDS011;25147;52.142;9.960;2023-11-18T10:17:40;11.20;;;7.45;;
39442;SDS011;25147;52.142;9.960;2023-11-18T10:20:43;14.05;;;8.10;;
39442;SDS011;25147;52.142;9.960;2023-11-18T10:23:38;8.88;;;6.70;;
39442;SDS011;25147;52.142;9.960;2023-11-18T10:26:07;12.40;;;7.95;;
39442;SDS011;25147;52.142;9.960;2023-11-18T10:28:37;12.02;;;7.68;;
39442;SDS011;25147;52.142;9.960;2023-11-18T10:31:05;14.02;;;8.63;;
39442;SDS011;25147;52.142;9.960;2023-11-18T10:33:37;14.52;;;8.57;;
39442;SDS011;25147;52.142;9.960;2023-11-18T10:36:16;13.43;;;8.00;;
39442;SDS011;25147;52.142;9.960;2023-11-18T10:38:47;12.55;;;8.23;;
39442;SDS011;25147;52.142;9.960;2023-11-18T10:41:18;15.57;;;9.50;;
39442;SDS011;25147;52.142;9.960;2023-11-18T10:43:45;12.98;;;8.32;;
39442;SDS011;25147;52.142;9.960;2023-11-18T10:46:13;13.02;;;8.90;;
39442;SDS011;25147;52.142;9.960;2023-11-18T10:48:43;13.40;;;8.57;;
39442;SDS011;25147;52.142;9.960;2023-11-18T10:51:12;14.27;;;8.25;;
39442;SDS011;25147;52.142;9.960;2023-11-18T10:53:41;10.75;;;7.65;;
39442;SDS011;25147;52.142;9.960;2023-11-18T10:56:18;15.45;;;9.25;;
39442;SDS011;25147;52.142;9.960;2023-11-18T10:58:51;24.35;;;12.90;;
39442;SDS011;25147;52.142;9.960;2023-11-18T11:01:26;14.85;;;8.45;;
39442;SDS011;25147;52.142;9.960;2023-11-18T11:03:56;10.27;;;6.85;;
39442;SDS011;25147;52.142;9.960;2023-11-18T11:06:23;11.27;;;7.53;;
39442;SDS011;25147;52.142;9.960;2023-11-18T11:08:50;8.52;;;6.18;;
39442;SDS011;25147;52.142;9.960;2023-11-18T11:11:19;9.05;;;6.15;;
39442;SDS011;25147;52.142;9.960;2023-11-18T11:13:49;10.15;;;6.68;;
39442;SDS011;25147;52.142;9.960;2023-11-18T11:16:21;8.43;;;5.70;;
39442;SDS011;25147;52.142;9.960;2023-11-18T11:19:03;8.57;;;6.70;;
39442;SDS011;25147;52.142;9.960;2023-11-18T11:21:35;10.48;;;6.38;;
39442;SDS011;25147;52.142;9.960;2023-11-18T11:24:17;8.85;;;6.40;;
39442;SDS011;25147;52.142;9.960;2023-11-18T11:27:01;10.35;;;6.45;;
39442;SDS011;25147;52.142;9.960;2023-11-18T11:29:36;9.50;;;6.68;;
39442;SDS011;25147;52.142;9.960;2023-11-18T11:32:18;10.82;;;6.97;;
39442;SDS011;25147;52.142;9.960;2023-11-18T11:34:55;8.52;;;6.05;;
39442;SDS011;25147;52.142;9.960;2023-11-18T11:37:25;9.32;;;6.65;;
39442;SDS011;25147;52.142;9.960;2023-11-18T11:39:52;6.85;;;5.85;;
39442;SDS011;25147;52.142;9.960;2023-11-18T11:42:20;7.93;;;6.18;;
39442;SDS011;25147;52.142;9.960;2023-11-18T11:44:50;8.00;;;6.35;;
39442;SDS011;25147;52.142;9.960;2023-11-18T11:47:21;9.30;;;6.85;;
39442;SDS011;25147;52.142;9.960;2023-11-18T11:49:50;7.72;;;6.40;;
39442;SDS011;25147;52.142;9.960;2023-11-18T11:52:27;9.88;;;7.38;;
39442;SDS011;25147;52.142;9.960;2023-11-18T11:55:00;11.85;;;7.47;;
39442;SDS011;25147;52.142;9.960;2023-11-18T11:57:31;10.43;;;7.28;;
39442;SDS011;25147;52.142;9.960;2023-11-18T12:00:02;10.38;;;7.38;;
39442;SDS011;25147;52.142;9.960;2023-11-18T12:02:44;13.35;;;7.68;;
39442;SDS011;25147;52.142;9.960;2023-11-18T12:05:15;7.60;;;6.53;;
39442;SDS011;25147;52.142;9.960;2023-11-18T12:07:46;7.57;;;6.20;;
39442;SDS011;25147;52.142;9.960;2023-11-18T12:10:14;6.88;;;5.78;;
39442;SDS011;25147;52.142;9.960;2023-11-18T12:12:46;8.68;;;6.13;;
39442;SDS011;25147;52.142;9.960;2023-11-18T12:15:13;8.48;;;6.05;;
39442;SDS011;25147;52.142;9.960;2023-11-18T12:18:09;8.07;;;5.85;;
39442;SDS011;25147;52.142;9.960;2023-11-18T12:20:38;7.20;;;5.75;;
39442;SDS011;25147;52.142;9.960;2023-11-18T12:23:09;10.02;;;5.90;;
39442;SDS011;25147;52.142;9.960;2023-11-18T12:25:40;9.38;;;5.93;;
39442;SDS011;25147;52.142;9.960;2023-11-18T12:28:09;6.35;;;5.50;;
39442;SDS011;25147;52.142;9.960;2023-11-18T12:30:38;7.15;;;5.90;;
39442;SDS011;25147;52.142;9.960;2023-11-18T12:33:09;7.80;;;6.05;;
39442;SDS011;25147;52.142;9.960;2023-11-18T12:35:48;7.30;;;5.70;;
39442;SDS011;25147;52.142;9.960;2023-11-18T12:39:06;9.35;;;5.75;;
39442;SDS011;25147;52.142;9.960;2023-11-18T12:42:06;8.20;;;6.32;;
39442;SDS011;25147;52.142;9.960;2023-11-18T12:44:45;8.30;;;6.55;;
39442;SDS011;25147;52.142;9.960;2023-11-18T12:47:32;9.75;;;7.10;;
39442;SDS011;25147;52.142;9.960;2023-11-18T12:50:07;10.57;;;7.53;;
39442;SDS011;25147;52.142;9.960;2023-11-18T12:52:42;8.70;;;5.95;;
39442;SDS011;25147;52.142;9.960;2023-11-18T12:55:12;11.75;;;7.70;;
39442;SDS011;25147;52.142;9.960;2023-11-18T12:57:45;6.72;;;5.50;;
39442;SDS011;25147;52.142;9.960;2023-11-18T13:00:13;9.50;;;5.70;;
39442;SDS011;25147;52.142;9.960;2023-11-18T13:02:51;8.43;;;5.75;;
39442;SDS011;25147;52.142;9.960;2023-11-18T13:05:19;8.10;;;6.57;;
39442;SDS011;25147;52.142;9.960;2023-11-18T13:07:46;10.90;;;5.80;;
39442;SDS011;25147;52.142;9.960;2023-11-18T13:10:17;7.55;;;5.53;;
39442;SDS011;25147;52.142;9.960;2023-11-18T13:12:47;7.32;;;5.53;;
39442;SDS011;25147;52.142;9.960;2023-11-18T13:15:15;7.05;;;5.32;;
39442;SDS011;25147;52.142;9.960;2023-11-18T13:17:56;5.50;;;4.95;;
39442;SDS011;25147;52.142;9.960;2023-11-18T13:20:23;10.82;;;5.30;;
39442;SDS011;25147;52.142;9.960;2023-11-18T13:22:51;5.55;;;4.82;;
39442;SDS011;25147;52.142;9.960;2023-11-18T13:25:22;6.13;;;5.07;;
39442;SDS011;25147;52.142;9.960;2023-11-18T13:27:49;7.13;;;5.20;;
39442;SDS011;25147;52.142;9.960;2023-11-18T13:30:17;7.00;;;5.13;;
39442;SDS011;25147;52.142;9.960;2023-11-18T13:32:46;7.47;;;5.80;;
39442;SDS011;25147;52.142;9.960;2023-11-18T13:35:15;9.30;;;5.72;;
39442;SDS011;25147;52.142;9.960;2023-11-18T13:37:48;5.93;;;5.25;;
39442;SDS011;25147;52.142;9.960;2023-11-18T13:40:18;6.18;;;5.50;;
39442;SDS011;25147;52.142;9.960;2023-11-18T13:42:47;8.52;;;5.68;;
39442;SDS011;25147;52.142;9.960;2023-11-18T13:45:14;7.47;;;5.60;;
39442;SDS011;25147;52.142;9.960;2023-11-18T13:47:49;6.65;;;5.35;;
39442;SDS011;25147;52.142;9.960;2023-11-18T13:50:17;9.20;;;5.07;;
39442;SDS011;25147;52.142;9.960;2023-11-18T13:52:44;6.20;;;5.40;;
39442;SDS011;25147;52.142;9.960;2023-11-18T13:55:12;7.97;;;5.53;;
39442;SDS011;25147;52.142;9.960;2023-11-18T13:57:53;11.55;;;8.20;;
39442;SDS011;25147;52.142;9.960;2023-11-18T14:00:23;9.55;;;6.03;;
39442;SDS011;25147;52.142;9.960;2023-11-18T14:02:53;7.07;;;6.25;;
39442;SDS011;25147;52.142;9.960;2023-11-18T14:05:21;7.65;;;6.30;;
39442;SDS011;25147;52.142;9.960;2023-11-18T14:07:49;6.28;;;5.68;;
39442;SDS011;25147;52.142;9.960;2023-11-18T14:10:17;8.68;;;6.88;;
39442;SDS011;25147;52.142;9.960;2023-11-18T14:13:00;8.45;;;6.47;;
39442;SDS011;25147;52.142;9.960;2023-11-18T14:15:30;11.30;;;6.15;;
39442;SDS011;25147;52.142;9.960;2023-11-18T14:18:00;7.47;;;6.13;;
39442;SDS011;25147;52.142;9.960;2023-11-18T14:20:27;8.90;;;6.72;;
39442;SDS011;25147;52.142;9.960;2023-11-18T14:22:56;7.10;;;6.40;;
39442;SDS011;25147;52.142;9.960;2023-11-18T14:25:23;9.50;;;6.72;;
39442;SDS011;25147;52.142;9.960;2023-11-18T14:27:50;9.50;;;6.50;;
39442;SDS011;25147;52.142;9.960;2023-11-18T14:30:20;9.60;;;6.55;;
39442;SDS011;25147;52.142;9.960;2023-11-18T14:32:49;9.38;;;6.35;;
39442;SDS011;25147;52.142;9.960;2023-11-18T14:35:16;8.20;;;6.85;;
39442;SDS011;25147;52.142;9.960;2023-11-18T14:37:43;7.47;;;6.38;;
39442;SDS011;25147;52.142;9.960;2023-11-18T14:40:10;8.82;;;6.60;;
39442;SDS011;25147;52.142;9.960;2023-11-18T14:42:45;9.73;;;6.30;;
39442;SDS011;25147;52.142;9.960;2023-11-18T14:45:13;8.40;;;6.97;;
39442;SDS011;25147;52.142;9.960;2023-11-18T14:47:44;9.40;;;7.50;;
39442;SDS011;25147;52.142;9.960;2023-11-18T14:50:13;8.80;;;7.05;;
39442;SDS011;25147;52.142;9.960;2023-11-18T14:52:43;8.60;;;7.70;;
39442;SDS011;25147;52.142;9.960;2023-11-18T14:55:10;8.25;;;7.43;;